createdAt,value
2022-10-18T00:00:46.196Z,6.30
2022-10-18T00:03:12.508Z,5.75
2022-10-18T00:05:38.916Z,6.10
2022-10-18T00:08:05.381Z,6.35
2022-10-18T00:10:31.759Z,6.75
2022-10-18T00:12:58.095Z,5.47
2022-10-18T00:15:24.581Z,6.95
2022-10-18T00:17:50.893Z,7.35
2022-10-18T00:20:17.204Z,7.18
2022-10-18T00:22:43.536Z,7.75
2022-10-18T00:25:10.450Z,8.83
2022-10-18T00:27:37.267Z,8.73
2022-10-18T00:30:05.005Z,8.77
2022-10-18T00:32:31.583Z,8.27
2022-10-18T00:34:58.207Z,9.63
2022-10-18T00:37:24.583Z,8.63
2022-10-18T00:42:25.104Z,8.65
2022-10-18T00:44:51.391Z,8.77
2022-10-18T00:47:18.756Z,9.25
2022-10-18T00:49:53.091Z,9.27
2022-10-18T00:52:24.136Z,9.10
2022-10-18T00:54:52.071Z,8.88
2022-10-18T00:57:18.712Z,8.18
2022-10-18T00:59:46.510Z,8.93
2022-10-18T01:02:14.956Z,8.47
2022-10-18T01:04:41.488Z,7.63
2022-10-18T01:07:18.744Z,8.25
2022-10-18T01:10:08.259Z,7.78
2022-10-18T01:13:02.555Z,6.95
2022-10-18T01:15:33.899Z,5.70
2022-10-18T01:18:20.869Z,6.25
2022-10-18T01:21:11.267Z,8.02
2022-10-18T01:23:59.509Z,7.75
2022-10-18T01:26:41.036Z,7.68
2022-10-18T01:29:26.652Z,7.07
2022-10-18T01:32:10.571Z,6.40
2022-10-18T01:34:40.429Z,6.47
2022-10-18T01:37:09.274Z,6.13
2022-10-18T01:39:39.251Z,5.97
2022-10-18T01:42:09.750Z,6.17
2022-10-18T01:44:38.832Z,5.93
2022-10-18T01:47:07.530Z,6.50
2022-10-18T01:49:34.496Z,6.70
2022-10-18T01:52:00.960Z,6.43
2022-10-18T01:54:35.047Z,6.13
2022-10-18T01:57:19.464Z,5.90
2022-10-18T01:59:54.798Z,6.50
2022-10-18T02:02:30.611Z,6.10
2022-10-18T02:05:18.604Z,6.78
2022-10-18T02:08:24.346Z,6.77
2022-10-18T02:11:12.363Z,7.22
2022-10-18T02:13:43.236Z,7.45
2022-10-18T02:16:15.687Z,8.32
2022-10-18T02:18:48.667Z,8.07
2022-10-18T02:21:19.192Z,7.20
2022-10-18T02:23:46.949Z,7.03
2022-10-18T02:26:16.888Z,6.88
2022-10-18T02:28:44.056Z,6.07
2022-10-18T02:31:18.781Z,6.80
2022-10-18T02:33:56.843Z,6.87
2022-10-18T02:36:36.259Z,6.78
2022-10-18T02:39:11.940Z,6.63
2022-10-18T02:41:38.496Z,6.22
2022-10-18T02:44:04.902Z,6.32
2022-10-18T02:46:31.422Z,5.47
2022-10-18T02:48:57.754Z,5.78
2022-10-18T02:51:25.113Z,7.25
2022-10-18T02:53:51.680Z,6.68
2022-10-18T02:56:18.058Z,5.90
2022-10-18T02:58:44.429Z,6.20
2022-10-18T03:01:10.804Z,6.10
2022-10-18T03:03:37.181Z,6.68
2022-10-18T03:06:03.665Z,6.57
2022-10-18T03:08:30.043Z,6.22
2022-10-18T03:10:56.386Z,6.40
2022-10-18T03:13:22.791Z,5.75
2022-10-18T03:15:49.209Z,5.82
2022-10-18T03:18:15.780Z,5.65
2022-10-18T03:20:42.229Z,5.55
2022-10-18T03:23:09.137Z,5.17
2022-10-18T03:25:35.491Z,4.80
2022-10-18T03:28:01.838Z,5.53
2022-10-18T03:30:28.235Z,5.30
2022-10-18T03:32:54.635Z,5.07
2022-10-18T03:35:21.209Z,3.97
2022-10-18T03:37:47.604Z,3.90
2022-10-18T03:40:13.971Z,4.18
2022-10-18T03:42:40.441Z,4.25
2022-10-18T03:45:07.452Z,3.90
2022-10-18T03:47:33.989Z,3.87
2022-10-18T03:50:00.549Z,3.33
2022-10-18T03:52:26.881Z,3.95
2022-10-18T03:54:53.269Z,3.20
2022-10-18T03:57:19.635Z,3.47
2022-10-18T03:59:45.963Z,3.77
2022-10-18T04:02:12.340Z,3.40
2022-10-18T04:04:38.694Z,3.78
2022-10-18T04:07:05.044Z,3.45
2022-10-18T04:09:31.414Z,3.58
2022-10-18T04:11:57.741Z,3.53
2022-10-18T04:14:24.068Z,3.20
2022-10-18T04:16:50.445Z,3.67
2022-10-18T04:19:17.016Z,4.25
2022-10-18T04:21:43.343Z,4.35
2022-10-18T04:24:09.651Z,4.20
2022-10-18T04:26:35.980Z,3.90
2022-10-18T04:29:02.491Z,3.83
2022-10-18T04:31:28.923Z,3.90
2022-10-18T04:33:55.347Z,4.32
2022-10-18T04:36:21.741Z,4.87
2022-10-18T04:38:48.083Z,4.55
2022-10-18T04:41:14.402Z,4.93
2022-10-18T04:43:40.761Z,3.78
2022-10-18T04:46:07.141Z,4.78
2022-10-18T04:48:33.493Z,4.50
2022-10-18T04:50:59.893Z,4.57
2022-10-18T04:53:26.225Z,4.55
2022-10-18T04:55:52.632Z,4.40
2022-10-18T04:58:19.179Z,4.32
2022-10-18T05:00:47.554Z,3.40
2022-10-18T05:03:14.617Z,3.30
2022-10-18T05:06:00.332Z,4.28
2022-10-18T05:08:27.657Z,4.60
2022-10-18T05:10:54.090Z,5.40
2022-10-18T05:13:20.433Z,4.87
2022-10-18T05:15:47.468Z,3.63
2022-10-18T05:18:13.883Z,3.67
2022-10-18T05:20:40.206Z,3.45
2022-10-18T05:23:06.546Z,3.40
2022-10-18T05:25:32.892Z,2.93
2022-10-18T05:28:03.430Z,2.92
2022-10-18T05:30:39.052Z,3.05
2022-10-18T05:33:05.786Z,3.17
2022-10-18T05:35:32.140Z,3.13
2022-10-18T05:37:58.489Z,2.97
2022-10-18T05:40:24.862Z,3.40
2022-10-18T05:42:54.043Z,4.38
2022-10-18T05:45:20.402Z,3.83
2022-10-18T05:47:46.843Z,3.75
2022-10-18T05:50:14.860Z,4.47
2022-10-18T05:52:41.283Z,4.10
2022-10-18T05:55:07.949Z,4.50
2022-10-18T05:57:34.725Z,4.72
2022-10-18T06:00:01.284Z,4.38
2022-10-18T06:02:27.651Z,4.37
2022-10-18T06:04:53.998Z,5.25
2022-10-18T06:07:20.307Z,5.07
2022-10-18T06:09:46.607Z,5.50
2022-10-18T06:12:13.191Z,6.57
2022-10-18T06:14:39.624Z,5.93
2022-10-18T06:17:06.010Z,5.55
2022-10-18T06:19:32.330Z,6.25
2022-10-18T06:21:58.648Z,5.20
2022-10-18T06:24:25.164Z,5.63
2022-10-18T06:26:51.520Z,5.57
2022-10-18T06:29:17.909Z,5.43
2022-10-18T06:31:44.254Z,8.45
2022-10-18T06:34:10.566Z,5.32
2022-10-18T06:36:36.913Z,3.95
2022-10-18T06:39:03.341Z,4.30
2022-10-18T06:41:29.664Z,4.70
2022-10-18T06:43:57.680Z,4.22
2022-10-18T06:46:25.726Z,4.15
2022-10-18T06:48:52.124Z,4.85
2022-10-18T06:51:18.590Z,4.70
2022-10-18T06:54:05.819Z,3.85
2022-10-18T06:56:31.581Z,4.55
2022-10-18T07:01:25.267Z,4.35
2022-10-18T07:03:53.345Z,4.10
2022-10-18T07:06:20.450Z,4.50
2022-10-18T07:08:48.190Z,3.97
2022-10-18T07:11:20.295Z,4.85
2022-10-18T07:13:46.752Z,4.75
2022-10-18T07:16:18.244Z,4.27
2022-10-18T07:18:50.769Z,4.10
2022-10-18T07:21:19.963Z,4.45
2022-10-18T07:23:47.280Z,4.82
2022-10-18T07:26:15.198Z,4.82
2022-10-18T07:28:42.694Z,4.73
2022-10-18T07:31:10.487Z,4.70
2022-10-18T07:33:39.819Z,4.68
2022-10-18T07:36:08.336Z,5.50
2022-10-18T07:38:35.651Z,5.28
2022-10-18T07:41:04.203Z,4.73
2022-10-18T07:43:30.760Z,5.13
2022-10-18T07:46:00.201Z,5.65
2022-10-18T07:48:27.090Z,5.43
2022-10-18T07:50:53.876Z,5.78
2022-10-18T07:53:20.545Z,5.03
2022-10-18T07:55:46.861Z,5.90
2022-10-18T07:58:13.239Z,4.88
2022-10-18T08:00:40.037Z,4.50
2022-10-18T08:03:06.748Z,4.85
2022-10-18T08:08:07.889Z,5.03
2022-10-18T08:10:36.181Z,5.03
2022-10-18T08:13:02.499Z,4.75
2022-10-18T08:15:28.802Z,5.50
2022-10-18T08:17:55.118Z,5.77
2022-10-18T08:20:30.273Z,5.70
2022-10-18T08:23:00.158Z,4.53
2022-10-18T08:25:27.410Z,4.65
2022-10-18T08:27:53.780Z,4.75
2022-10-18T08:30:20.261Z,3.97
2022-10-18T08:32:46.573Z,5.13
2022-10-18T08:35:12.874Z,5.18
2022-10-18T08:37:40.213Z,5.32
2022-10-18T08:40:07.147Z,4.47
2022-10-18T08:43:00.346Z,4.20
2022-10-18T08:45:41.900Z,4.68
2022-10-18T08:48:21.631Z,4.45
2022-10-18T08:50:49.629Z,4.45
2022-10-18T08:53:49.152Z,4.05
2022-10-18T08:56:18.768Z,4.10
2022-10-18T08:58:45.200Z,4.15
2022-10-18T09:01:17.459Z,4.47
2022-10-18T09:04:08.454Z,3.63
2022-10-18T09:07:04.769Z,4.03
2022-10-18T09:09:56.036Z,3.87
2022-10-18T09:12:50.200Z,3.45
2022-10-18T09:15:44.499Z,4.15
2022-10-18T09:18:41.660Z,3.58
2022-10-18T09:21:26.965Z,3.60
2022-10-18T09:24:02.548Z,4.07
2022-10-18T09:26:39.198Z,3.72
2022-10-18T09:29:39.483Z,3.53
2022-10-18T09:32:21.114Z,5.05
2022-10-18T09:34:58.082Z,3.20
2022-10-18T09:37:28.297Z,3.50
2022-10-18T09:40:19.496Z,3.25
2022-10-18T09:43:08.029Z,3.28
2022-10-18T09:45:40.054Z,1.80
2022-10-18T09:48:23.946Z,1.67
2022-10-18T09:51:04.637Z,2.07
2022-10-18T09:53:58.554Z,1.77
2022-10-18T09:56:36.684Z,1.42
2022-10-18T09:59:19.383Z,1.50
2022-10-18T10:01:45.822Z,0.70
2022-10-18T10:04:12.192Z,0.87
2022-10-18T10:06:49.037Z,0.50
2022-10-18T10:09:17.921Z,0.80
2022-10-18T10:11:49.148Z,0.90
2022-10-18T10:14:19.322Z,0.57
2022-10-18T10:16:53.073Z,0.43
2022-10-18T10:19:24.183Z,0.80
2022-10-18T10:21:55.061Z,0.80
2022-10-18T10:24:28.927Z,0.50
2022-10-18T10:27:03.277Z,0.70
2022-10-18T10:29:48.068Z,0.87
2022-10-18T10:32:19.607Z,0.80
2022-10-18T10:34:46.731Z,0.60
2022-10-18T10:37:35.005Z,0.60
2022-10-18T10:40:18.347Z,0.65
2022-10-18T10:42:54.539Z,0.60
2022-10-18T10:45:29.525Z,0.90
2022-10-18T10:48:04.557Z,0.60
2022-10-18T10:50:31.468Z,0.60
2022-10-18T10:52:58.630Z,0.70
2022-10-18T10:55:35.785Z,1.03
2022-10-18T10:58:02.487Z,0.60
2022-10-18T11:00:47.043Z,0.70
2022-10-18T11:03:34.535Z,0.52
2022-10-18T11:06:01.756Z,0.40
2022-10-18T11:08:41.330Z,0.40
2022-10-18T11:11:27.739Z,0.60
2022-10-18T11:14:26.182Z,1.02
2022-10-18T11:17:06.977Z,0.52
2022-10-18T11:20:01.229Z,0.52
2022-10-18T11:22:35.038Z,0.90
2022-10-18T11:25:03.918Z,0.88
2022-10-18T11:27:48.900Z,0.70
2022-10-18T11:30:36.724Z,0.47
2022-10-18T11:33:11.902Z,0.55
2022-10-18T11:35:47.342Z,0.60
2022-10-18T11:38:33.596Z,0.60
2022-10-18T11:41:06.753Z,0.60
2022-10-18T11:44:03.135Z,0.60
2022-10-18T11:46:57.213Z,0.60
2022-10-18T11:49:26.176Z,0.50
2022-10-18T11:52:22.489Z,0.65
2022-10-18T11:55:00.258Z,0.70
2022-10-18T11:57:36.086Z,0.52
2022-10-18T12:03:19.530Z,0.70
2022-10-18T12:05:48.412Z,0.60
2022-10-18T12:08:38.722Z,0.75
2022-10-18T12:11:14.377Z,0.50
2022-10-18T12:13:44.230Z,0.60
2022-10-18T12:16:12.204Z,0.57
2022-10-18T12:21:25.930Z,0.52
2022-10-18T12:24:05.936Z,0.50
2022-10-18T12:26:34.987Z,0.50
2022-10-18T12:29:39.918Z,0.60
2022-10-18T12:32:13.013Z,0.52
2022-10-18T12:35:03.229Z,0.50
2022-10-18T12:37:51.223Z,0.50
2022-10-18T12:40:23.324Z,0.60
2022-10-18T12:42:52.020Z,0.60
2022-10-18T12:45:46.239Z,0.57
2022-10-18T12:48:35.230Z,0.75
2022-10-18T12:51:18.559Z,0.55
2022-10-18T12:53:47.598Z,0.60
2022-10-18T12:56:29.131Z,0.53
2022-10-18T12:59:18.612Z,0.50
2022-10-18T13:01:51.324Z,0.40
2022-10-18T13:04:32.358Z,0.40
2022-10-18T13:06:59.653Z,0.77
2022-10-18T13:09:48.185Z,0.70
2022-10-18T13:12:14.451Z,0.40
2022-10-18T13:15:27.695Z,0.50
2022-10-18T13:18:26.753Z,0.57
2022-10-18T13:21:09.680Z,0.43
2022-10-18T13:23:38.059Z,0.47
2022-10-18T13:26:32.160Z,0.50
2022-10-18T13:29:27.926Z,0.63
2022-10-18T13:34:46.707Z,0.43
2022-10-18T13:37:13.887Z,0.60
2022-10-18T13:39:40.363Z,0.50
2022-10-18T13:42:12.664Z,0.57
2022-10-18T13:44:40.089Z,0.50
2022-10-18T13:47:06.901Z,0.60
2022-10-18T13:49:39.452Z,0.60
2022-10-18T13:52:25.804Z,0.55
2022-10-18T13:55:26.421Z,0.60
2022-10-18T13:57:55.534Z,0.50
2022-10-18T14:00:59.552Z,0.73
2022-10-18T14:03:57.002Z,0.60
2022-10-18T14:06:28.694Z,0.43
2022-10-18T14:09:09.513Z,0.65
2022-10-18T14:11:53.629Z,0.60
2022-10-18T14:14:34.289Z,0.60
2022-10-18T14:17:28.119Z,0.50
2022-10-18T14:20:01.439Z,0.70
2022-10-18T14:22:34.465Z,0.90
2022-10-18T14:25:01.123Z,0.73
2022-10-18T14:27:32.951Z,1.10
2022-10-18T14:30:20.164Z,1.00
2022-10-18T14:32:54.393Z,0.70
2022-10-18T14:35:38.908Z,1.30
2022-10-18T14:38:06.225Z,0.85
2022-10-18T14:40:40.061Z,0.90
2022-10-18T14:43:12.323Z,0.80
2022-10-18T14:45:39.417Z,0.80
2022-10-18T14:48:18.072Z,0.95
2022-10-18T14:50:47.121Z,0.90
2022-10-18T14:53:22.005Z,0.80
2022-10-18T14:55:57.797Z,0.60
2022-10-18T14:58:24.268Z,0.70
2022-10-18T15:00:50.749Z,0.70
2022-10-18T15:03:18.721Z,0.98
2022-10-18T15:05:59.400Z,0.70
2022-10-18T15:08:38.517Z,0.70
2022-10-18T15:11:10.477Z,0.98
2022-10-18T15:13:48.039Z,0.60
2022-10-18T15:16:18.362Z,1.20
2022-10-18T15:18:58.961Z,0.70
2022-10-18T15:21:25.468Z,0.50
2022-10-18T15:23:54.115Z,0.40
2022-10-18T15:26:29.901Z,0.60
2022-10-18T15:29:01.434Z,0.60
2022-10-18T15:31:35.965Z,0.47
2022-10-18T15:34:30.158Z,0.57
2022-10-18T15:36:57.087Z,0.50
2022-10-18T15:39:26.336Z,0.70
2022-10-18T15:41:59.184Z,0.60
2022-10-18T15:44:31.988Z,0.70
2022-10-18T15:47:13.634Z,0.57
2022-10-18T15:49:46.212Z,0.50
2022-10-18T15:52:21.828Z,0.63
2022-10-18T15:57:20.452Z,0.45
2022-10-18T16:00:00.482Z,0.50
2022-10-18T16:02:26.892Z,0.52
2022-10-18T16:04:53.596Z,0.82
2022-10-18T16:07:20.292Z,0.50
2022-10-18T16:09:46.679Z,0.98
2022-10-18T16:12:13.015Z,0.80
2022-10-18T16:14:39.479Z,0.80
2022-10-18T16:17:07.162Z,1.10
2022-10-18T16:19:33.919Z,0.70
2022-10-18T16:22:06.089Z,0.50
2022-10-18T16:24:33.180Z,0.60
2022-10-18T16:26:59.535Z,0.50
2022-10-18T16:29:28.441Z,0.55
2022-10-18T16:31:57.888Z,0.90
2022-10-18T16:34:26.880Z,0.65
2022-10-18T16:36:54.067Z,0.70
2022-10-18T16:39:21.721Z,0.90
2022-10-18T16:41:48.804Z,0.75
2022-10-18T16:44:16.398Z,0.90
2022-10-18T16:46:43.305Z,0.88
2022-10-18T16:51:46.847Z,0.98
2022-10-18T16:54:13.295Z,0.85
2022-10-18T16:56:40.157Z,1.13
2022-10-18T16:59:07.016Z,0.70
2022-10-18T17:01:33.438Z,0.60
2022-10-18T17:03:59.800Z,1.13
2022-10-18T17:06:29.365Z,1.02
2022-10-18T17:08:56.943Z,0.75
2022-10-18T17:11:25.297Z,0.73
2022-10-18T17:13:51.976Z,0.93
2022-10-18T17:16:33.104Z,0.70
2022-10-18T17:19:02.094Z,1.38
2022-10-18T17:21:29.214Z,1.02
2022-10-18T17:24:00.430Z,0.63
2022-10-18T17:26:29.356Z,1.00
2022-10-18T17:28:59.296Z,1.25
2022-10-18T17:31:25.718Z,0.82
2022-10-18T17:33:54.596Z,1.10
2022-10-18T17:36:21.777Z,0.98
2022-10-18T17:38:52.891Z,0.83
2022-10-18T17:41:19.386Z,1.02
2022-10-18T17:43:45.720Z,0.80
2022-10-18T17:46:12.969Z,0.85
2022-10-18T17:48:39.339Z,0.90
2022-10-18T17:51:10.688Z,0.73
2022-10-18T17:53:37.226Z,1.10
2022-10-18T17:56:04.664Z,0.95
2022-10-18T17:58:31.577Z,1.10
2022-10-18T18:01:07.541Z,0.70
2022-10-18T18:03:33.925Z,0.90
2022-10-18T18:06:00.300Z,1.10
2022-10-18T18:08:26.818Z,1.05
2022-10-18T18:10:55.889Z,0.75
2022-10-18T18:13:22.247Z,0.85
2022-10-18T18:15:48.568Z,0.97
2022-10-18T18:18:15.011Z,1.15
2022-10-18T18:20:41.387Z,1.13
2022-10-18T18:23:07.700Z,1.00
2022-10-18T18:25:34.058Z,1.00
2022-10-18T18:28:06.672Z,1.13
2022-10-18T18:30:33.870Z,1.35
2022-10-18T18:33:00.185Z,0.95
2022-10-18T18:35:26.528Z,1.60
2022-10-18T18:37:52.886Z,1.98
2022-10-18T18:40:19.289Z,1.97
2022-10-18T18:42:56.793Z,2.70
2022-10-18T18:45:31.948Z,2.63
2022-10-18T18:47:58.280Z,2.45
2022-10-18T18:50:24.584Z,2.15
2022-10-18T18:52:50.899Z,2.37
2022-10-18T18:55:17.378Z,1.67
2022-10-18T18:57:43.718Z,1.50
2022-10-18T19:00:12.539Z,1.63
2022-10-18T19:02:38.858Z,1.83
2022-10-18T19:05:05.494Z,1.10
2022-10-18T19:07:32.252Z,1.35
2022-10-18T19:09:58.854Z,1.45
2022-10-18T19:12:25.214Z,1.60
2022-10-18T19:14:51.537Z,1.10
2022-10-18T19:17:17.924Z,0.93
2022-10-18T19:19:44.301Z,1.40
2022-10-18T19:22:11.048Z,1.65
2022-10-18T19:24:37.478Z,2.00
2022-10-18T19:27:09.520Z,1.75
2022-10-18T19:29:37.949Z,1.90
2022-10-18T19:32:07.221Z,2.83
2022-10-18T19:34:34.564Z,2.75
2022-10-18T19:37:01.545Z,2.47
2022-10-18T19:39:33.550Z,2.72
2022-10-18T19:42:03.227Z,3.10
2022-10-18T19:44:31.721Z,3.20
2022-10-18T19:46:58.509Z,3.78
2022-10-18T19:49:25.504Z,3.33
2022-10-18T19:51:52.141Z,3.28
2022-10-18T19:54:18.614Z,3.70
2022-10-18T19:56:45.236Z,2.83
2022-10-18T19:59:13.171Z,3.50
2022-10-18T20:01:39.800Z,3.70
2022-10-18T20:04:08.264Z,4.07
2022-10-18T20:06:36.433Z,3.97
2022-10-18T20:09:03.363Z,4.45
2022-10-18T20:11:30.177Z,3.67
2022-10-18T20:13:57.087Z,4.45
2022-10-18T20:16:28.457Z,3.72
2022-10-18T20:19:07.266Z,4.47
2022-10-18T20:21:36.941Z,4.28
2022-10-18T20:24:04.659Z,5.57
2022-10-18T20:26:31.708Z,4.93
2022-10-18T20:28:59.622Z,5.72
2022-10-18T20:31:31.807Z,5.70
2022-10-18T20:34:00.390Z,5.30
2022-10-18T20:36:28.311Z,4.75
2022-10-18T20:38:55.075Z,4.63
2022-10-18T20:41:26.987Z,4.47
2022-10-18T20:43:58.907Z,3.97
2022-10-18T20:46:26.812Z,4.57
2022-10-18T20:48:53.888Z,4.50
2022-10-18T20:51:21.686Z,4.28
2022-10-18T20:53:48.660Z,4.20
2022-10-18T20:56:17.797Z,3.80
2022-10-18T20:58:44.877Z,4.03
2022-10-18T21:01:17.275Z,4.13
2022-10-18T21:03:45.732Z,3.70
2022-10-18T21:06:17.373Z,3.80
2022-10-18T21:08:44.100Z,3.63
2022-10-18T21:11:12.016Z,3.58
2022-10-18T21:13:38.532Z,3.90
2022-10-18T21:16:05.947Z,3.70
2022-10-18T21:18:34.260Z,3.65
2022-10-18T21:23:39.636Z,3.80
2022-10-18T21:26:06.709Z,3.65
2022-10-18T21:28:33.246Z,3.70
2022-10-18T21:31:12.517Z,3.22
2022-10-18T21:33:40.188Z,3.53
2022-10-18T21:36:06.728Z,3.85
2022-10-18T21:38:33.071Z,3.10
2022-10-18T21:40:59.668Z,3.67
2022-10-18T21:43:26.348Z,3.38
2022-10-18T21:46:01.916Z,3.53
2022-10-18T21:48:28.318Z,3.58
2022-10-18T21:50:54.847Z,3.53
2022-10-18T21:53:21.759Z,3.10
2022-10-18T21:55:48.299Z,3.33
2022-10-18T21:58:14.957Z,3.33
2022-10-18T22:00:41.336Z,3.47
2022-10-18T22:03:13.254Z,3.10
2022-10-18T22:05:39.915Z,2.72
2022-10-18T22:08:07.060Z,2.65
2022-10-18T22:10:33.628Z,2.57
2022-10-18T22:12:59.975Z,3.05
2022-10-18T22:15:26.318Z,3.80
2022-10-18T22:17:52.696Z,3.15
2022-10-18T22:20:19.071Z,3.05
2022-10-18T22:22:45.375Z,3.27
2022-10-18T22:25:11.687Z,3.60
2022-10-18T22:27:38.508Z,3.80
2022-10-18T22:30:05.439Z,3.30
2022-10-18T22:32:31.745Z,3.30
2022-10-18T22:34:58.069Z,2.80
2022-10-18T22:37:24.437Z,3.38
2022-10-18T22:39:50.753Z,3.85
2022-10-18T22:42:17.087Z,3.17
2022-10-18T22:44:43.407Z,3.92
2022-10-18T22:47:09.811Z,4.57
2022-10-18T22:49:36.115Z,4.25
2022-10-18T22:52:02.452Z,4.60
2022-10-18T22:54:28.808Z,4.65
2022-10-18T22:56:55.132Z,4.07
2022-10-18T22:59:21.439Z,4.13
2022-10-18T23:01:47.752Z,3.92
2022-10-18T23:04:14.109Z,4.63
2022-10-18T23:06:40.465Z,4.03
2022-10-18T23:09:10.075Z,4.03
2022-10-18T23:11:37.196Z,4.77
2022-10-18T23:14:05.423Z,3.55
2022-10-18T23:16:32.111Z,4.00
2022-10-18T23:18:59.130Z,3.85
2022-10-18T23:21:28.067Z,4.05
2022-10-18T23:23:55.443Z,3.90
2022-10-18T23:26:24.308Z,3.60
2022-10-18T23:28:52.337Z,3.85
2022-10-18T23:31:27.679Z,3.38
2022-10-18T23:33:56.441Z,3.55
2022-10-18T23:36:23.694Z,3.00
2022-10-18T23:38:50.454Z,3.30
2022-10-18T23:41:18.306Z,3.72
2022-10-18T23:43:45.087Z,3.50
2022-10-18T23:46:12.173Z,2.97
2022-10-18T23:48:38.772Z,3.03
2022-10-18T23:51:06.077Z,2.88
2022-10-18T23:53:32.661Z,3.03
2022-10-18T23:56:00.250Z,2.88
2022-10-18T23:58:27.519Z,2.78
